Latest  Newer  Older  Last 2 hours animation  Current image  Latest image 
Rain/snow radar  Infrared sat images 
Real-time lightning map

All time is UTC (add 2 hours to UTC in wintertime, 3 hours to UTC in DST for Latvia local time)

2018/06/19 12:20 EVRA 191220Z 24011KT 210V270 9999 SCT026CB BKN039 18/15 Q1011 NOSIG
2018/06/19 12:20 EVLA 191220Z AUTO 26014KT 9000 SCT018/// BKN021/// BKN060/// 17/15 Q1013
2018/06/19 12:20 EVVA 191220Z AUTO 24016G26KT CAVOK 19/14 Q1010
2018/06/19 12:20 EYKA 191220Z 26017G31KT 9999 -SHRA SCT064CB OVC072 22/10 Q1015
2018/06/19 12:20 EYPA 191220Z VRB08G18KT 9999 BKN017 BKN048 19/14 Q1015
2018/06/19 12:20 EYSA 191220Z 24014G24KT 180V270 5000 -SHRA FEW022CB BKN075 19/15 Q1014 WHT TEMPO 5000 SHRA SCT020CB GRN
2018/06/19 12:20 EYVI 191220Z 25013KT 9999 SCT048TCU BKN065 24/09 Q1015 NOSIG
2018/06/19 11:50 EEKA 191150Z 24011G23KT 180V300 CAVOK 17/09 Q1005
2018/06/19 12:09 EEKE 191209Z AUTO 27014G27KT 230V310 9999NDV NSC 18/10 Q1008
2018/06/19 11:50 EEPU 191150Z 24023G34KT 9999 BKN018 18/14 Q1006
2018/06/19 12:20 EETN 191220Z 25021KT 6000 SHRA SCT015 SCT020CB BKN049 13/12 Q1004 TEMPO 4000
2018/06/19 11:50 EETU 191150Z 21014KT 6000 -SHRA SCT010 SCT029CB OVC038 17/12 Q1007
   RIGA AIRPORT     EVRA               56 55N  023 58E   10   X     T          6 LV
   LIEPAJA INTL     EVLA        26406  56 31N  021 06E    4   X                8 LV
   VENTPILS         EVVA               57 21N  021 33E    6   X                8 LV
   KAUNAS           EYKA               54 54N  023 55E   77   X     T          6 LT
   PALANGA INTL     EYPA               55 55N  021 03E   10   X                6 LT
   SIAULIAI INTL    EYSA               55 54N  023 24E  135   X     T          6 LT
   VILNIUS INTL     EYVI        26730  54 38N  025 17E  197   X     T          6 LT
   KARDLA           EEKA        26116  58 59N  022 50E    4   X                8 EE
   KURESSAARE       EEKE               58 14N  022 31E    4   X                8 EE
   PARNU            EEPU               58 25N  024 28E   14   X                8 EE
   TALLINN          EETN        26038  59 24N  024 49E   40   X     T          8 EE
   TARTU            EETU               58 19N  026 41E   67   X                8 EE

cloud coverage image from sat24.com and METAR data from weather.noaa.gov